Date,TemperatureHighF,TemperatureAvgF,TemperatureLowF,DewpointHighF,DewpointAvgF,DewpointLowF,HumidityHigh,HumidityAvg,HumidityLow,PressureMaxIn,PressureMinIn,WindSpeedMaxMPH,WindSpeedAvgMPH,GustSpeedMaxMPH,PrecipitationSumIn
2013-1-1,41.5,32.9,28.6,41.0,31.4,26.6,98,95,84,30.45,30.33,3,0,4,0.00
2013-1-2,48.0,34.4,29.8,44.6,31.4,28.4,98,91,56,30.33,30.15,4,0,4,0.04
2013-1-3,48.7,36.3,28.8,42.8,32.4,26.6,98,87,56,30.18,30.00,7,1,11,0.04
2013-1-4,42.8,40.5,38.5,41.0,39.7,37.4,98,95,87,30.24,30.09,9,3,10,0.08
2013-1-5,45.0,42.3,41.0,42.8,41.4,39.2,98,94,88,30.12,29.97,11,2,13,0.42
2013-1-6,43.5,41.2,39.0,42.8,40.2,37.4,98,95,89,30.06,29.88,6,1,9,0.54
2013-1-7,43.7,39.5,35.6,42.8,39.0,33.8,98,96,91,30.06,29.71,8,3,15,0.91
2013-1-8,45.5,38.0,34.9,46.4,37.8,33.8,98,97,91,30.06,29.53,11,3,16,1.20
2013-1-9,51.1,41.9,36.3,46.4,39.2,33.8,98,89,68,29.83,29.53,4,1,6,0.00
2013-1-10,47.5,35.4,27.1,42.8,30.3,23.0,98,83,52,30.12,29.80,4,1,6,0.00
2013-1-11,45.9,30.8,24.3,26.6,22.0,19.4,93,74,40,30.30,30.06,4,1,9,0.00
2013-1-12,43.9,30.7,24.8,24.8,20.3,17.6,84,68,42,30.42,30.24,4,1,6,0.00
2013-1-13,34.0,26.5,23.4,26.6,21.2,19.4,90,84,65,30.42,30.33,3,0,3,0.00
2013-1-14,34.3,34.3,34.2,30.2,30.2,30.2,85,84,83,30.50,30.50,0,0,0,0.00
2013-1-15,41.2,36.5,33.8,33.8,29.9,26.6,88,76,58,30.65,30.50,4,0,4,0.00
2013-1-16,38.8,35.7,28.8,30.2,29.2,24.8,90,76,70,30.59,30.47,4,0,4,0.00
2013-1-17,48.2,34.0,27.7,42.8,29.5,24.8,97,86,58,30.47,30.21,5,1,5,0.00
2013-1-18,48.6,35.0,28.9,42.8,32.0,26.6,98,90,65,30.30,30.18,4,0,4,0.00
2013-1-19,50.5,36.2,30.0,42.8,33.0,28.4,98,89,55,30.33,30.24,3,0,4,0.00
2013-1-20,53.2,35.5,28.8,44.6,31.3,26.6,98,87,52,30.33,30.21,2,0,3,0.00
2013-1-21,42.8,33.6,28.8,39.2,31.7,26.6,98,93,74,30.24,30.06,4,1,4,0.00
2013-1-22,41.4,36.2,31.6,39.2,34.7,30.2,98,93,80,30.09,29.85,4,1,5,0.00
2013-1-23,41.9,40.3,37.4,42.8,39.5,35.6,98,94,83,30.00,29.74,6,1,6,0.46
2013-1-24,45.9,41.3,38.3,42.8,38.8,32.0,98,90,60,30.12,29.94,9,2,13,0.16
2013-1-25,52.3,43.1,40.3,42.8,39.9,37.4,97,88,60,29.97,29.80,7,3,10,0.04
2013-1-26,44.8,41.5,39.9,44.6,40.2,37.4,97,94,87,29.94,29.77,6,2,10,0.29
2013-1-27,43.0,40.0,38.7,42.8,39.1,37.4,98,96,87,29.97,29.88,4,1,6,0.17
2013-1-28,40.8,39.4,37.9,39.2,36.5,33.8,97,89,78,29.97,29.85,4,2,6,0.08
2013-1-29,42.4,40.1,36.9,41.0,38.7,35.6,98,94,87,30.24,29.94,4,1,6,0.09
2013-1-30,46.8,42.3,40.1,46.4,41.9,41.0,98,95,87,30.30,30.21,4,1,6,0.04
2013-1-31,46.2,43.2,41.2,46.4,43.5,41.0,98,98,96,30.33,30.18,6,1,9,0.08
2013-2-1,51.4,43.5,36.5,48.2,42.1,37.4,98,93,69,30.39,30.24,3,0,3,0.00
2013-2-2,53.2,40.0,32.2,48.2,37.1,32.0,98,89,58,30.33,30.15,6,0,6,0.00
2013-2-3,44.4,41.6,40.3,42.8,40.5,39.2,98,94,87,30.24,30.09,4,1,5,0.08
2013-2-4,47.5,43.8,40.8,44.6,42.5,41.0,98,93,80,30.09,29.77,10,2,14,0.04
2013-2-5,47.3,45.0,43.0,44.6,42.2,39.2,97,88,82,29.80,29.68,9,2,10,0.17
2013-2-6,46.2,44.3,41.5,42.8,40.4,35.6,96,85,67,29.91,29.68,9,2,13,0.20
2013-2-7,56.1,43.1,32.0,39.2,35.1,28.4,94,73,44,30.15,29.65,9,1,9,0.05
2013-2-8,52.9,38.1,30.2,41.0,33.9,26.6,98,85,53,30.27,30.12,4,1,6,0.00
2013-2-9,46.4,40.2,36.9,42.8,37.8,35.6,94,90,76,30.30,30.15,2,0,4,0.04
2013-2-10,48.2,39.9,36.9,39.2,36.5,33.8,94,87,62,30.27,30.24,5,1,6,0.00
2013-2-11,46.6,41.3,39.0,46.4,39.8,37.4,97,94,85,30.27,30.21,3,0,4,0.00
2013-2-12,46.6,42.8,38.7,44.6,41.6,37.4,97,93,85,30.27,30.12,5,1,7,0.04
2013-2-13,52.5,44.2,38.7,42.8,40.4,37.4,98,86,57,30.42,30.15,4,1,7,0.00
2013-2-14,45.5,42.6,40.1,42.8,41.3,39.2,98,93,82,30.53,30.36,6,1,6,0.08
2013-2-15,57.4,44.3,36.3,46.4,40.3,35.6,98,85,50,30.53,30.09,5,1,10,0.00
2013-2-16,58.6,45.6,37.4,50.0,40.9,35.6,98,83,53,30.09,29.97,6,1,6,0.13
2013-2-17,49.5,41.7,34.5,41.0,36.5,32.0,97,82,56,30.15,30.06,4,1,6,0.00
2013-4-21,41.7,39.2,37.0,37.4,36.5,35.6,92,89,86,30.33,30.24,2,0,3,0.00
2013-4-22,67.5,49.3,33.3,39.2,32.5,8.6,95,58,10,30.47,30.30,7,1,10,0.00
2013-4-23,67.6,52.3,38.5,41.0,35.0,28.4,81,55,26,30.33,30.21,7,1,9,0.00
2013-4-24,65.7,51.5,38.3,48.2,41.0,33.8,89,68,43,30.27,29.97,8,2,10,0.00
2013-4-25,72.0,55.2,41.0,46.4,43.1,39.2,94,66,34,30.06,29.94,5,1,6,0.00
2013-4-26,65.5,53.9,43.3,50.0,44.2,41.0,95,70,48,30.18,30.03,4,0,4,0.00
2013-4-27,57.0,52.4,48.2,50.0,43.9,37.4,93,73,53,30.12,30.00,4,1,6,0.12
2013-4-28,66.2,50.2,40.6,46.4,37.6,30.2,93,65,33,30.12,29.80,7,2,11,0.00
2013-4-29,64.6,51.0,39.2,42.8,29.9,19.4,80,47,23,30.03,29.77,7,2,13,0.00
2013-4-30,65.3,49.6,37.4,35.6,28.7,21.2,72,45,24,30.36,30.03,7,2,9,0.00
2013-5-1,64.9,50.7,34.9,41.0,33.4,26.6,86,54,26,30.53,30.33,5,1,7,0.00
2013-5-2,63.9,52.4,39.9,44.6,38.2,32.0,85,59,40,30.47,30.30,6,1,8,0.00
2013-5-3,74.7,57.5,40.6,48.2,43.8,39.2,95,64,34,30.33,30.15,7,1,9,0.00
2013-5-4,57.9,47.4,43.9,51.8,44.6,42.8,95,89,69,30.21,30.18,2,0,2,0.00
2013-5-5,91.2,73.5,57.4,48.2,33.1,-11.2,59,34,2,29.80,29.74,5,1,9,0.00
2013-5-6,81.3,65.1,52.2,57.2,48.2,41.0,81,55,33,29.80,29.68,5,1,8,0.00
2013-5-7,75.6,62.4,49.6,53.6,48.5,44.6,91,62,42,29.88,29.74,6,1,7,0.00
2013-5-8,72.0,60.1,50.2,55.4,49.9,48.2,95,71,45,30.06,29.88,4,1,6,0.00
2013-5-9,73.8,60.3,48.6,55.4,50.6,48.2,97,72,45,30.15,30.03,6,2,6,0.00
2013-5-10,79.0,63.2,50.0,55.4,51.1,46.4,96,68,39,30.12,30.03,4,1,6,0.00
2013-5-11,76.5,61.6,54.3,59.0,52.1,46.4,97,72,41,30.09,29.88,9,2,13,0.50
2013-5-12,72.0,62.1,56.3,60.8,57.7,55.4,97,86,62,30.00,29.88,6,1,6,0.38
2013-5-13,61.3,55.6,48.4,57.2,52.5,42.8,96,88,69,30.03,29.80,4,1,6,0.49
2013-5-14,74.5,57.6,45.1,51.8,45.3,39.2,96,67,36,30.12,30.03,4,1,4,0.04
2013-5-15,72.5,58.0,49.6,50.0,45.6,39.2,94,65,36,30.06,29.91,5,2,6,0.05
2013-5-16,74.1,59.5,50.9,53.6,49.5,46.4,93,71,42,29.94,29.80,6,1,8,0.00
2013-5-17,71.6,57.3,49.3,55.4,51.0,48.2,95,80,50,29.94,29.83,5,1,6,0.04
2013-5-18,68.7,58.6,50.0,55.4,49.2,41.0,88,72,46,30.18,29.94,4,1,5,0.00
2013-5-19,77.4,59.3,48.7,55.4,47.8,42.8,91,68,37,30.27,30.18,7,2,10,0.00
2013-5-20,73.2,56.8,45.5,51.8,46.4,42.8,94,70,46,30.27,29.85,6,1,9,0.00
2013-5-21,58.1,51.8,46.9,50.0,45.9,41.0,95,79,56,29.85,29.71,4,1,6,0.12
2013-5-22,68.2,56.5,46.9,50.0,45.8,42.8,93,69,44,29.88,29.74,6,2,9,0.04
2013-5-23,68.5,57.0,47.1,48.2,43.8,37.4,94,64,41,29.97,29.85,5,2,8,0.17
2013-5-24,72.0,57.9,42.3,48.2,44.1,39.2,96,62,39,29.97,29.88,4,1,6,0.00
2013-5-25,71.1,55.5,44.4,51.8,45.4,41.0,93,70,44,29.97,29.91,5,1,6,0.00
2013-5-26,72.3,58.7,47.7,51.8,48.1,44.6,91,69,45,29.97,29.85,5,1,7,0.00
2013-5-27,61.0,55.9,53.2,53.6,52.3,48.2,97,87,62,29.91,29.62,6,2,9,0.66
2013-5-28,57.0,54.8,52.0,55.4,53.3,50.0,97,93,84,29.80,29.68,6,1,7,0.54
2013-5-29,61.2,54.3,50.5,55.4,51.9,50.0,97,91,78,29.88,29.62,5,1,7,0.25
2013-5-30,64.9,56.2,49.8,53.6,49.0,44.6,97,78,50,30.15,29.83,5,1,6,0.04
2013-5-31,73.2,59.9,49.3,51.8,46.7,39.2,88,64,38,30.27,30.15,5,1,6,0.00
2013-6-1,69.4,58.0,49.5,51.8,48.1,44.6,83,70,45,30.15,30.00,4,1,6,0.00
2013-6-2,73.0,60.9,47.1,51.8,48.0,44.6,94,65,42,30.06,29.91,8,2,11,0.00
2013-6-3,77.4,62.6,48.7,57.2,48.7,42.8,97,65,36,30.03,29.97,6,2,9,0.00
2013-6-4,76.5,63.3,49.6,57.2,51.7,48.2,95,68,43,30.06,29.94,6,2,6,0.00
2013-6-5,79.7,66.4,55.8,59.0,52.0,48.2,84,61,41,30.00,29.91,7,2,11,0.00
2013-6-6,81.9,65.4,51.3,57.2,51.5,46.4,94,64,34,29.97,29.91,4,1,7,0.00
2013-6-7,81.5,66.4,55.9,55.4,51.9,46.4,83,61,37,30.03,29.88,4,1,9,0.00
2013-6-8,73.9,59.9,53.1,53.6,49.5,46.4,87,69,44,30.12,30.00,4,1,6,0.00
2013-6-9,76.8,61.5,48.6,57.2,46.9,42.8,96,63,32,30.06,29.91,6,2,9,0.00
2013-6-10,78.3,60.3,46.9,53.6,47.7,42.8,92,66,33,30.03,29.80,9,1,9,0.00
2013-6-11,58.6,57.0,54.9,48.2,47.2,44.6,76,68,63,29.85,29.80,6,1,8,0.00
2013-6-19,73.6,65.8,59.7,55.4,53.0,50.0,82,64,45,29.85,29.80,6,2,9,0.04
2013-6-20,62.2,59.0,57.6,55.4,53.8,51.8,89,81,71,29.97,29.77,6,2,9,0.13
2013-6-21,76.1,64.5,55.6,55.4,53.4,50.0,95,69,43,30.09,29.97,5,1,6,0.00
2013-6-22,79.5,65.7,56.5,57.2,54.3,50.0,87,68,43,30.03,29.83,4,1,6,0.00
2013-6-23,72.7,63.8,52.3,60.8,55.0,50.0,94,74,49,29.83,29.56,4,1,5,0.00
2013-6-24,61.2,60.5,60.3,60.8,59.4,59.0,97,96,93,29.56,29.44,4,2,6,0.95
2013-6-27,63.1,62.4,61.9,60.8,60.8,60.8,95,94,92,30.21,30.09,6,3,8,0.58
2013-6-28,74.5,66.3,61.0,62.6,60.8,57.2,96,83,59,30.18,29.97,5,1,5,0.00
2013-6-29,85.3,71.8,61.0,64.4,60.8,57.2,96,71,43,30.03,29.94,4,2,6,0.00
2013-6-30,97.5,77.6,61.0,64.4,59.6,55.4,94,59,30,29.97,29.83,5,1,6,0.00
2013-7-1,96.8,77.0,62.4,68.0,60.7,57.2,86,60,32,29.94,29.83,5,1,5,0.00
2013-7-2,84.7,72.7,63.0,64.4,59.8,57.2,86,64,44,30.03,29.94,5,1,6,0.00
2013-7-3,83.3,70.5,57.4,59.0,52.9,48.2,85,55,30,30.06,29.94,6,2,8,0.00
2013-7-4,80.2,67.2,56.3,57.2,54.1,51.8,91,64,42,30.03,29.91,4,1,6,0.00
2013-7-5,81.5,66.9,54.0,57.2,53.6,50.0,94,65,39,29.94,29.83,6,2,9,0.00
2013-7-6,86.2,69.0,54.1,57.2,52.4,50.0,86,58,33,29.88,29.77,7,2,10,0.00
2013-7-7,86.5,69.7,58.5,59.0,54.7,50.0,87,61,35,29.88,29.80,6,1,9,0.00
2013-7-8,81.5,67.7,56.7,60.8,56.4,53.6,91,69,40,30.03,29.85,4,1,6,0.00
2013-7-9,84.2,70.2,56.7,64.4,58.3,53.6,95,69,39,30.03,29.91,5,1,6,0.00
2013-7-10,80.1,69.6,59.5,62.6,55.0,46.4,94,62,42,29.94,29.83,5,2,8,0.00
2013-7-11,76.5,65.6,55.0,53.6,47.1,41.0,72,52,36,29.97,29.83,8,2,11,0.00
2013-7-12,80.4,64.7,54.0,53.6,49.0,41.0,83,58,33,30.00,29.91,6,1,13,0.00
2013-7-13,77.7,65.1,51.8,57.2,50.2,46.4,92,61,38,30.12,30.00,6,1,8,0.00
2013-7-14,81.7,67.2,52.0,57.2,51.4,42.8,94,60,32,30.03,29.94,6,2,8,0.00
2013-7-15,86.4,69.6,54.9,55.4,49.9,42.8,80,52,27,30.00,29.85,8,2,9,0.00
2013-7-16,97.2,73.0,56.3,57.2,51.2,42.8,73,49,22,29.88,29.80,7,1,11,0.00
2013-7-17,84.4,72.3,63.9,60.8,56.0,51.8,76,57,40,30.12,29.80,4,1,5,0.00
2013-7-18,82.2,68.5,57.2,62.6,57.8,53.6,92,70,42,30.15,30.03,6,1,8,0.00
2013-7-19,80.6,68.7,58.1,62.6,59.4,57.2,96,74,51,30.09,29.94,5,1,7,0.00
2013-7-20,81.0,68.4,57.9,62.6,58.4,55.4,96,73,45,29.97,29.88,5,1,6,0.00
2013-7-21,81.0,68.3,56.8,60.8,57.2,55.4,96,70,42,29.88,29.83,6,1,7,0.00
2013-7-22,80.6,68.7,57.7,62.6,57.7,55.4,96,71,45,29.97,29.85,5,1,8,0.00
2013-7-23,85.8,68.6,55.8,62.6,58.3,55.4,94,72,40,30.00,29.91,6,1,6,0.00
2013-7-24,85.8,69.5,57.2,64.4,58.5,55.4,96,71,40,29.97,29.91,5,1,6,0.00
2013-7-25,84.2,70.0,56.3,64.4,58.0,55.4,96,69,37,30.03,29.94,5,1,7,0.00
2013-7-26,84.0,69.7,56.5,59.0,53.7,42.8,94,60,35,30.06,29.97,6,2,9,0.00
2013-7-27,82.8,68.4,56.1,55.4,49.6,42.8,78,53,32,30.06,29.91,6,1,10,0.00
2013-7-28,82.9,67.6,53.6,59.0,53.8,48.2,91,64,32,29.94,29.85,5,1,8,0.00
2013-7-29,79.5,67.3,56.5,60.8,56.6,55.4,94,71,44,29.91,29.88,5,1,6,0.00
2013-7-30,79.7,68.2,57.4,64.4,57.4,55.4,95,70,46,30.06,29.91,5,1,6,0.00
2013-7-31,78.8,69.0,58.5,62.6,58.6,55.4,93,70,51,30.03,29.91,6,1,6,0.00
2013-8-1,77.7,68.1,62.8,62.6,58.7,55.4,95,73,50,29.94,29.88,5,1,6,0.04
2013-8-2,64.4,62.6,61.7,59.0,57.8,55.4,90,84,78,30.06,29.91,4,1,6,0.05
2013-8-3,76.3,66.3,60.4,60.8,58.0,55.4,92,76,52,30.06,29.97,4,1,5,0.00
2013-8-4,84.6,69.5,59.2,64.4,59.1,53.6,95,73,41,30.00,29.88,5,1,9,0.00
2013-8-5,85.3,69.4,56.8,64.4,58.4,55.4,96,71,37,29.97,29.85,5,1,6,0.00
2013-8-6,83.1,68.6,56.1,62.6,57.4,55.4,96,70,41,29.94,29.85,4,1,6,0.00
2013-8-7,84.0,69.5,57.4,62.6,56.9,51.8,93,66,41,29.94,29.88,4,1,5,0.00
2013-8-8,62.4,60.9,59.4,60.8,56.8,55.4,93,86,78,29.91,29.88,2,0,2,0.00
2013-8-9,88.9,73.9,64.8,66.2,63.4,60.8,89,71,40,29.80,29.74,3,0,4,0.00
2013-8-10,82.4,71.4,62.6,66.2,60.4,55.4,93,69,47,29.91,29.80,5,1,6,0.00
2013-8-11,75.7,66.2,62.1,62.6,58.0,53.6,91,75,54,29.97,29.88,4,1,6,0.00
2013-8-12,84.9,68.7,59.7,60.8,57.5,53.6,88,69,42,30.00,29.91,5,1,7,0.00
2013-8-13,82.2,68.7,57.6,60.8,56.4,51.8,94,68,40,30.03,29.85,4,1,6,0.00
2013-8-14,77.4,67.0,57.4,62.6,56.9,51.8,87,70,44,29.88,29.83,5,1,8,0.00
2013-8-15,78.4,69.1,64.2,66.2,62.5,57.2,91,80,60,29.94,29.83,3,0,4,0.00
2013-8-16,75.6,67.6,63.7,68.0,62.8,60.8,93,85,66,29.94,29.88,5,1,10,0.03
2013-8-17,85.5,71.5,61.3,64.4,59.4,53.6,93,68,41,30.00,29.88,4,1,5,0.00
2013-8-18,79.5,67.1,59.0,60.8,56.3,53.6,91,69,45,30.06,29.97,6,1,6,0.00
2013-8-19,63.0,60.6,58.6,59.0,56.1,55.4,88,85,81,30.00,29.94,2,0,2,0.00
2013-8-24,59.2,57.8,56.5,53.6,53.6,53.6,87,85,82,29.83,29.80,0,0,0,0.13
2013-8-25,78.8,63.9,52.5,59.0,53.1,48.2,96,70,41,29.88,29.77,5,1,7,0.00
2013-8-26,80.1,64.9,55.8,60.8,55.4,51.8,93,72,46,29.85,29.77,4,1,6,0.04
2013-8-27,75.2,65.6,59.5,59.0,56.8,53.6,96,74,50,29.85,29.74,6,1,6,0.29
2013-8-28,77.4,65.6,59.4,62.6,60.2,57.2,97,83,56,29.85,29.74,4,2,6,0.62
2013-8-29,66.9,64.5,63.0,64.4,63.3,60.8,97,95,90,29.85,29.77,6,2,8,1.58
2013-8-30,74.5,63.8,56.5,64.4,58.8,53.6,98,84,50,30.09,29.85,4,1,8,0.12
2013-8-31,57.9,54.5,53.1,57.2,54.1,51.8,98,96,94,30.03,29.97,2,0,2,0.00
2013-9-3,67.8,59.8,58.1,60.8,57.6,57.2,95,93,75,29.97,29.94,2,0,0,0.25
2013-9-4,79.3,64.3,55.6,66.2,59.1,55.4,98,84,54,30.00,29.91,4,1,6,0.00
2013-9-5,68.9,62.1,56.3,64.4,60.6,55.4,97,93,80,29.97,29.83,4,0,4,0.12
2013-9-6,72.0,64.1,59.0,66.2,61.1,59.0,97,90,72,30.03,29.83,3,0,4,0.00
2013-9-7,78.6,66.4,59.5,64.4,60.6,57.2,96,83,54,30.03,29.97,4,1,7,0.00
2013-9-8,81.9,64.9,57.2,64.4,59.9,57.2,97,85,51,30.03,29.94,4,1,5,0.00
2013-9-9,78.8,65.7,56.7,64.4,58.9,55.4,97,80,50,30.00,29.91,6,1,8,0.00
2013-9-10,85.1,67.2,55.2,66.2,58.2,55.4,97,76,42,29.94,29.85,5,1,7,0.00
2013-9-11,95.7,70.9,57.2,62.6,57.6,53.6,95,69,27,29.91,29.83,4,1,5,0.00
2013-9-12,83.5,68.5,58.8,64.4,58.9,53.6,93,73,42,29.91,29.83,5,1,6,0.00
2013-9-13,71.2,62.8,57.6,64.4,59.2,57.2,97,88,69,29.88,29.77,4,1,5,0.00
2013-9-14,66.4,62.3,58.5,62.6,60.7,57.2,97,93,84,29.80,29.68,4,1,6,0.00
2013-9-15,65.5,61.4,58.8,62.6,60.2,59.0,97,95,89,29.74,29.59,8,1,13,0.17
2013-9-16,68.5,61.1,53.4,64.4,58.7,53.6,97,92,79,29.83,29.68,4,1,5,1.29
2013-9-17,72.3,59.6,51.6,62.6,54.2,50.0,98,83,52,29.83,29.74,6,1,10,0.00
2013-9-18,73.4,58.2,48.9,60.8,51.1,48.2,98,79,47,30.00,29.83,5,1,6,0.00
2013-9-19,77.0,63.3,55.9,55.4,51.5,48.2,84,66,40,29.97,29.68,5,2,8,0.00
2013-9-20,71.8,61.4,54.7,57.2,53.3,46.4,95,75,42,29.71,29.50,6,1,6,0.12
2013-9-21,74.1,61.7,56.3,62.6,56.0,53.6,97,82,53,29.68,29.56,4,1,5,0.33
2013-9-22,61.2,57.0,54.9,57.2,55.1,53.6,96,91,82,29.62,29.41,5,1,6,0.91
2013-9-23,75.6,58.5,47.3,55.4,50.5,42.8,95,77,40,29.88,29.59,4,1,5,0.09
2013-9-24,63.1,52.9,45.9,51.8,46.9,42.8,97,81,48,29.85,29.77,4,1,6,0.00
2013-9-25,68.9,54.0,42.3,51.8,46.3,42.8,98,77,46,30.00,29.80,6,1,11,0.00
2013-9-26,70.5,55.1,43.9,53.6,46.3,39.2,97,75,39,30.09,29.91,5,1,9,0.00
2013-9-27,54.5,52.1,50.0,53.6,49.8,48.2,96,91,77,30.00,29.74,6,1,8,0.33
2013-9-28,57.0,53.8,51.4,55.4,52.4,50.0,96,93,85,29.74,29.21,10,2,13,0.79
2013-9-29,55.9,53.3,50.9,53.6,50.9,44.6,96,90,73,29.38,29.09,9,2,16,0.99
2013-9-30,55.9,53.0,50.9,51.8,48.5,44.6,91,83,72,29.77,29.18,13,3,17,0.09
2013-10-1,60.8,50.8,46.8,48.2,45.4,42.8,95,81,51,30.06,29.77,5,2,8,0.33
2013-10-2,52.5,48.3,41.0,50.0,46.7,41.0,97,91,79,30.18,29.94,5,2,8,0.37
2013-10-3,65.8,49.5,38.8,55.4,44.5,39.2,98,84,49,30.42,30.12,4,0,7,0.00
2013-10-4,58.8,51.2,44.1,50.0,46.3,42.8,98,83,56,30.45,30.27,7,1,8,0.00
2013-10-5,62.1,55.6,53.1,53.6,50.1,44.6,94,81,64,30.33,30.06,9,3,11,0.00
2013-10-6,70.5,58.2,49.6,55.4,51.2,48.2,98,79,49,30.06,29.71,4,1,6,0.04
2013-10-7,68.7,55.7,50.9,53.6,50.8,46.4,96,83,50,29.91,29.71,4,1,7,0.13
2013-10-8,67.6,52.4,42.1,50.0,42.9,39.2,95,72,40,30.09,29.83,4,1,6,0.00
2013-10-9,66.9,50.2,40.6,48.2,43.2,39.2,97,78,44,30.09,29.85,3,0,5,0.00
2013-10-10,66.2,51.0,42.1,50.0,44.3,41.0,94,79,45,30.06,29.85,7,1,9,0.00
2013-10-11,57.7,48.1,39.6,51.8,43.7,39.2,97,85,63,30.12,30.00,4,0,4,0.00
2013-10-12,62.8,49.1,39.9,53.6,43.5,39.2,98,82,50,30.21,30.00,6,1,10,0.00
2013-10-13,65.1,48.7,39.6,55.4,42.1,39.2,98,80,45,30.36,30.15,4,0,6,0.00
2013-10-14,67.3,49.2,39.2,55.4,43.8,39.2,98,83,47,30.39,30.27,4,0,5,0.00
2013-10-15,61.3,48.4,41.9,53.6,45.6,41.0,98,89,59,30.33,30.12,4,0,5,0.00
2013-10-16,69.4,50.3,40.8,53.6,45.3,41.0,98,84,48,30.18,30.06,4,0,6,0.00
2013-10-17,65.5,50.4,42.1,55.4,46.2,42.8,98,86,53,30.27,30.12,4,0,6,0.00
2013-10-18,66.6,49.4,41.2,51.8,45.4,41.0,98,86,50,30.24,30.09,4,0,4,0.00
2013-10-19,56.8,49.3,43.9,50.0,47.0,42.8,97,91,75,30.24,30.06,5,0,4,0.00
2013-10-20,54.3,50.3,48.0,50.0,48.1,46.4,95,90,79,30.18,30.09,3,0,4,0.00
2013-10-21,60.4,49.9,45.3,51.8,47.7,44.6,96,90,66,30.18,30.03,3,0,4,0.00
2013-10-22,63.5,48.9,42.1,50.0,45.9,42.8,98,89,60,30.09,29.94,3,0,4,0.00
2013-10-23,65.3,48.8,42.3,53.6,46.0,42.8,98,89,56,30.03,29.91,4,0,4,0.00
2013-10-24,67.8,49.6,41.5,55.4,46.4,42.8,98,88,49,30.06,29.94,3,0,4,0.00
2013-10-25,54.3,49.3,46.4,51.8,48.0,46.4,98,94,85,30.33,30.03,2,0,2,0.00
2013-10-26,63.9,52.6,48.6,51.8,47.3,42.8,96,82,50,30.33,30.09,6,1,8,0.00
2013-10-27,68.9,53.4,43.7,55.4,43.3,28.4,97,71,38,30.09,29.88,5,1,10,0.00
2013-10-28,70.2,50.2,39.0,39.2,32.3,24.8,76,52,26,30.03,29.85,5,1,10,0.00
2013-10-29,61.5,44.4,34.9,42.8,32.8,26.6,91,66,36,30.03,29.85,4,0,4,0.00
2013-10-30,58.8,47.2,37.8,48.2,39.4,33.8,97,75,45,30.09,29.94,6,1,10,0.12
2013-10-31,54.1,49.7,47.3,51.8,48.8,48.2,98,95,86,30.24,30.00,5,0,7,0.13
2013-11-1,56.7,51.3,49.8,51.8,50.0,48.2,98,93,77,30.21,29.80,7,1,9,0.45
2013-11-2,50.0,45.9,37.9,50.0,45.7,37.4,98,97,95,29.83,29.38,8,1,12,2.03
2013-11-3,56.3,39.5,33.1,44.6,35.3,32.0,98,86,45,30.12,29.80,5,1,6,0.00
2013-11-4,48.7,40.1,31.1,37.4,30.2,26.6,98,70,47,30.18,30.03,6,2,8,0.00
2013-11-5,47.1,41.1,35.4,42.8,36.8,28.4,98,84,53,30.27,29.97,6,1,9,0.13
2013-11-6,49.5,45.2,40.3,42.8,40.3,37.4,98,82,62,30.30,29.94,9,2,17,0.24
2013-11-7,51.4,46.5,44.2,50.0,45.5,41.0,98,95,83,29.94,29.59,12,3,13,0.54
2013-11-8,57.9,47.2,38.1,51.8,43.5,37.4,98,87,61,30.09,29.85,4,1,6,0.04
2013-11-9,49.3,46.6,45.0,46.4,44.3,42.8,96,90,83,30.15,30.03,6,2,8,0.05
2013-11-10,55.2,44.8,37.8,50.0,42.3,37.4,98,89,64,30.18,30.03,4,0,9,0.00
2013-11-11,60.6,48.4,43.9,44.6,40.2,35.6,88,73,44,30.18,29.94,6,1,8,0.00
2013-11-12,56.8,52.3,49.3,53.6,48.2,39.2,97,85,63,30.27,29.88,9,1,12,0.37
2013-11-13,61.2,50.8,44.4,57.2,48.0,44.6,98,89,67,30.36,30.21,2,0,3,0.04
2013-11-14,61.9,49.1,41.4,51.8,42.9,35.6,98,79,47,30.27,29.97,7,1,8,0.08
2013-11-15,44.1,42.2,39.0,42.8,40.8,37.4,98,92,79,30.00,29.23,6,1,6,0.87
2013-11-16,46.6,39.2,32.5,44.6,37.0,32.0,98,90,76,29.68,29.26,3,0,4,0.00
2013-11-17,51.8,42.5,33.4,48.2,40.2,32.0,96,90,80,29.85,29.65,3,0,7,0.00
2013-11-18,46.8,44.0,41.5,44.6,43.2,41.0,97,95,91,29.83,29.53,4,0,6,0.42
2013-11-19,50.0,39.8,28.8,42.8,28.3,19.4,98,67,31,30.06,29.50,7,2,9,0.00
2013-11-20,45.7,31.1,26.1,30.2,23.3,21.2,93,77,40,30.50,30.03,5,1,6,0.00
2013-11-21,48.7,34.1,27.3,30.2,26.2,21.2,90,76,46,30.65,30.45,5,0,6,0.00
2013-11-22,53.2,36.5,27.7,37.4,29.5,24.8,95,78,43,30.59,30.42,3,0,5,0.00
2013-11-23,52.0,38.3,31.3,41.0,32.5,26.6,95,80,50,30.42,30.18,3,0,3,0.00
2013-11-24,55.0,41.1,33.1,44.6,36.6,32.0,97,84,50,30.24,30.12,3,0,4,0.00
2013-11-25,54.7,43.1,35.6,48.2,38.9,35.6,98,85,54,30.27,30.18,6,0,6,0.00
2013-12-1,43.3,40.9,38.5,35.6,33.6,32.0,78,73,68,29.71,29.65,6,3,9,0.96
2013-12-2,52.2,39.6,32.9,35.6,26.7,17.6,90,60,42,30.12,29.65,9,1,14,0.00
2013-12-3,48.7,34.2,27.5,26.6,20.0,14.0,86,59,39,30.33,30.12,7,1,9,0.00
2013-12-4,44.1,30.7,24.6,32.0,20.4,14.0,89,70,40,30.33,30.24,5,1,9,0.00
2013-12-5,39.0,30.2,22.3,23.0,16.8,8.6,74,59,40,30.27,30.15,5,0,9,0.00
2013-12-6,38.3,28.1,20.5,15.8,-5.4,-20.2,75,30,10,30.33,30.15,14,4,23,0.00
2013-12-7,39.7,25.5,17.1,12.2,-0.2,-20.2,60,37,13,30.39,30.27,7,1,11,0.00
2013-12-8,42.1,29.5,24.6,21.2,13.4,10.4,64,53,41,30.53,30.33,6,1,9,0.00
2013-12-9,33.4,31.8,29.8,30.2,22.9,15.8,89,71,58,30.50,30.39,5,0,8,0.00
2013-12-10,37.4,34.2,32.4,32.0,29.2,26.6,91,81,66,30.45,30.36,4,0,7,0.00
2013-12-11,41.5,38.0,35.4,33.8,30.4,26.6,82,73,59,30.36,30.12,6,2,9,0.00
2013-12-12,41.0,38.9,35.1,41.0,36.2,30.2,98,89,76,30.12,29.94,9,2,13,0.33
2013-12-13,43.3,41.7,40.3,42.8,42.1,41.0,98,98,97,30.39,30.06,7,1,9,0.08
2013-12-14,46.9,44.8,42.6,46.4,44.2,42.8,98,97,93,30.39,30.24,10,1,15,0.04
2013-12-15,53.4,45.6,36.9,51.8,45.2,37.4,98,96,83,30.39,30.18,4,0,5,0.13
2013-12-16,48.2,41.8,36.9,46.4,41.1,37.4,98,95,82,30.45,30.24,4,0,6,0.00
2013-12-17,46.2,41.7,37.2,42.8,41.0,37.4,98,95,84,30.24,30.03,6,1,9,0.00
2013-12-18,49.5,39.0,31.8,32.0,29.8,26.6,90,70,46,30.27,29.94,5,0,5,0.00
2013-12-19,38.7,32.8,27.7,28.4,23.7,21.2,90,72,50,30.33,30.21,4,0,4,0.00